createdAt,value
2018-05-21T00:02:27.895Z,1002.19
2018-05-21T00:04:57.465Z,1002.12
2018-05-21T00:07:27.069Z,1002.11
2018-05-21T00:09:56.637Z,1002.10
2018-05-21T00:12:26.249Z,1002.14
2018-05-21T00:15:11.345Z,1002.15
2018-05-21T00:17:42.427Z,1002.10
2018-05-21T00:20:12.784Z,1002.18
2018-05-21T00:22:43.106Z,1002.07
2018-05-21T00:25:13.496Z,1002.08
2018-05-21T00:27:43.801Z,1002.00
2018-05-21T00:30:14.936Z,1001.98
2018-05-21T00:32:45.253Z,1001.99
2018-05-21T00:35:14.815Z,1001.98
2018-05-21T00:37:44.395Z,1001.90
2018-05-21T00:40:13.973Z,1001.92
2018-05-21T00:42:43.613Z,1001.91
2018-05-21T00:45:13.210Z,1001.87
2018-05-21T00:47:42.824Z,1001.88
2018-05-21T00:50:12.378Z,1001.82
2018-05-21T00:52:41.945Z,1001.82
2018-05-21T00:55:37.286Z,1001.82
2018-05-21T00:58:09.791Z,1001.84
2018-05-21T01:00:40.129Z,1001.82
2018-05-21T01:05:39.997Z,1001.79
2018-05-21T01:08:09.598Z,1001.81
2018-05-21T01:10:39.941Z,1001.82
2018-05-21T01:13:09.522Z,1001.84
2018-05-21T01:15:39.938Z,1001.75
2018-05-21T01:18:09.436Z,1001.79
2018-05-21T01:20:39.036Z,1001.73
2018-05-21T01:23:08.593Z,1001.69
2018-05-21T01:25:39.436Z,1001.69
2018-05-21T01:28:09.769Z,1001.64
2018-05-21T01:30:39.414Z,1001.61
2018-05-21T01:33:08.977Z,1001.62
2018-05-21T01:35:38.577Z,1001.62
2018-05-21T01:38:08.166Z,1001.63
2018-05-21T01:40:52.646Z,1001.61
2018-05-21T01:43:22.218Z,1001.63
2018-05-21T01:45:53.342Z,1001.65
2018-05-21T01:48:22.940Z,1001.62
2018-05-21T01:50:54.025Z,1001.55
2018-05-21T01:53:24.655Z,1001.63
2018-05-21T01:55:54.207Z,1001.58
2018-05-21T01:58:23.828Z,1001.55
2018-05-21T02:00:54.184Z,1001.54
2018-05-21T02:03:23.770Z,1001.45
2018-05-21T02:05:56.269Z,1001.48
2018-05-21T02:08:26.462Z,1001.46
2018-05-21T02:11:37.032Z,1001.46
2018-05-21T02:14:06.637Z,1001.46
2018-05-21T02:16:36.997Z,1001.43
2018-05-21T02:19:06.566Z,1001.42
2018-05-21T02:21:36.906Z,1001.44
2018-05-21T02:24:07.229Z,1001.42
2018-05-21T02:26:37.590Z,1001.47
2018-05-21T02:29:07.929Z,1001.47
2018-05-21T02:31:37.490Z,1001.42
2018-05-21T02:34:07.834Z,1001.41
2018-05-21T02:36:37.426Z,1001.39
2018-05-21T02:39:08.555Z,1001.37
2018-05-21T02:41:38.126Z,1001.39
2018-05-21T02:44:08.382Z,1001.32
2018-05-21T02:46:37.926Z,1001.39
2018-05-21T02:49:07.505Z,1001.38
2018-05-21T02:51:37.056Z,1001.31
2018-05-21T02:54:08.933Z,1001.31
2018-05-21T02:56:39.269Z,1001.29
2018-05-21T02:59:08.902Z,1001.32
2018-05-21T03:01:41.418Z,1001.26
2018-05-21T03:04:11.069Z,1001.26
2018-05-21T03:06:40.643Z,1001.25
2018-05-21T03:09:10.232Z,1001.26
2018-05-21T03:11:39.785Z,1001.23
2018-05-21T03:14:09.346Z,1001.19
2018-05-21T03:16:38.884Z,1001.23
2018-05-21T03:19:08.516Z,1001.17
2018-05-21T03:21:38.061Z,1001.19
2018-05-21T03:24:21.764Z,1001.17
2018-05-21T03:26:53.668Z,1001.16
2018-05-21T03:29:23.229Z,1001.13
2018-05-21T03:31:53.554Z,1001.14
2018-05-21T03:34:23.109Z,1001.15
2018-05-21T03:36:52.670Z,1001.15
2018-05-21T03:39:22.254Z,1001.14
2018-05-21T03:41:51.809Z,1001.18
2018-05-21T03:44:22.141Z,1001.21
2018-05-21T03:46:52.916Z,1001.22
2018-05-21T03:49:23.248Z,1001.27
2018-05-21T03:51:52.803Z,1001.29
2018-05-21T03:54:22.455Z,1001.19
2018-05-21T03:56:53.144Z,1001.18
2018-05-21T03:59:47.039Z,1001.16
2018-05-21T04:04:44.406Z,1001.19
2018-05-21T04:07:27.346Z,1001.12
2018-05-21T04:09:57.750Z,1001.10
2018-05-21T04:12:27.330Z,1001.07
2018-05-21T04:14:57.689Z,1001.11
2018-05-21T04:17:28.013Z,1001.07
2018-05-21T04:20:00.686Z,1001.10
2018-05-21T04:22:31.039Z,1001.11
2018-05-21T04:25:04.218Z,1001.05
2018-05-21T04:27:33.810Z,1001.05
2018-05-21T04:30:06.303Z,1001.01
2018-05-21T04:32:36.656Z,1001.01
2018-05-21T04:35:06.971Z,1001.07
2018-05-21T04:37:36.597Z,1001.01
2018-05-21T04:40:06.945Z,1001.01
2018-05-21T04:42:37.297Z,1000.95
2018-05-21T04:45:08.405Z,1000.97
2018-05-21T04:47:38.746Z,1001.00
2018-05-21T04:50:09.865Z,1000.93
2018-05-21T04:52:39.437Z,1000.93
2018-05-21T04:55:08.988Z,1000.95
2018-05-21T04:57:38.560Z,1000.94
2018-05-21T05:00:11.220Z,1000.97
2018-05-21T05:02:43.809Z,1000.89
2018-05-21T05:05:14.927Z,1000.87
2018-05-21T05:07:45.250Z,1000.81
2018-05-21T05:10:15.598Z,1000.80
2018-05-21T05:12:45.179Z,1000.78
2018-05-21T05:15:15.634Z,1000.76
2018-05-21T05:17:45.184Z,1000.77
2018-05-21T05:20:14.794Z,1000.70
2018-05-21T05:22:44.329Z,1000.68
2018-05-21T05:25:13.924Z,1000.64
2018-05-21T05:27:45.009Z,1000.65
2018-05-21T05:30:14.636Z,1000.61
2018-05-21T05:32:44.921Z,1000.61
2018-05-21T05:35:14.497Z,1000.59
2018-05-21T05:37:44.085Z,1000.60
2018-05-21T05:40:14.423Z,1000.56
2018-05-21T05:42:44.761Z,1000.55
2018-05-21T05:45:14.293Z,1000.54
2018-05-21T05:47:43.876Z,1000.56
2018-05-21T05:50:14.189Z,1000.56
2018-05-21T05:52:43.796Z,1000.50
2018-05-21T05:55:14.196Z,1000.54
2018-05-21T05:57:44.541Z,1000.53
2018-05-21T06:00:14.076Z,1000.52
2018-05-21T06:02:44.494Z,1000.57
2018-05-21T06:05:15.606Z,1000.59
2018-05-21T06:07:49.429Z,1000.56
2018-05-21T06:10:20.634Z,1000.55
2018-05-21T06:12:50.189Z,1000.46
2018-05-21T06:15:21.317Z,1000.52
2018-05-21T06:17:50.885Z,1000.51
2018-05-21T06:20:21.310Z,1000.48
2018-05-21T06:22:50.876Z,1000.53
2018-05-21T06:25:20.466Z,1000.49
2018-05-21T06:27:50.837Z,1000.47
2018-05-21T06:30:20.426Z,1000.48
2018-05-21T06:32:49.964Z,1000.48
2018-05-21T06:35:19.565Z,1000.54
2018-05-21T06:37:49.129Z,1000.44
2018-05-21T06:40:18.737Z,1000.43
2018-05-21T06:42:48.326Z,1000.42
2018-05-21T06:45:17.905Z,1000.43
2018-05-21T06:47:48.432Z,1000.39
2018-05-21T06:50:20.288Z,1000.40
2018-05-21T06:52:49.854Z,1000.38
2018-05-21T06:55:19.401Z,1000.38
2018-05-21T06:57:49.738Z,1000.33
2018-05-21T07:00:20.857Z,1000.31
2018-05-21T07:02:51.950Z,1000.33
2018-05-21T07:05:24.475Z,1000.30
2018-05-21T07:07:57.063Z,1000.36
2018-05-21T07:10:26.546Z,1000.30
2018-05-21T07:12:56.913Z,1000.34
2018-05-21T07:15:26.498Z,1000.32
2018-05-21T07:17:56.089Z,1000.31
2018-05-21T07:20:26.432Z,1000.31
2018-05-21T07:22:56.849Z,1000.30
2018-05-21T07:25:26.431Z,1000.30
2018-05-21T07:27:56.070Z,1000.20
2018-05-21T07:30:26.477Z,1000.18
2018-05-21T07:33:08.646Z,1000.07
2018-05-21T07:35:41.145Z,1000.05
2018-05-21T07:38:10.711Z,1000.14
2018-05-21T07:40:40.285Z,1000.12
2018-05-21T07:43:10.669Z,1000.09
2018-05-21T07:45:40.251Z,1000.05
2018-05-21T07:48:10.564Z,1000.02
2018-05-21T07:50:41.705Z,999.99
2018-05-21T07:53:11.797Z,1000.06
2018-05-21T07:55:41.409Z,999.97
2018-05-21T07:58:11.185Z,999.99
2018-05-21T08:00:40.773Z,999.95
2018-05-21T08:03:11.081Z,999.93
2018-05-21T08:05:41.457Z,999.89
2018-05-21T08:08:11.025Z,999.92
2018-05-21T08:10:42.705Z,999.91
2018-05-21T08:13:12.297Z,999.94
2018-05-21T08:15:41.904Z,999.91
2018-05-21T08:18:11.471Z,999.90
2018-05-21T08:20:42.569Z,999.87
2018-05-21T08:23:12.154Z,999.85
2018-05-21T08:25:41.722Z,999.84
2018-05-21T08:28:12.061Z,999.82
2018-05-21T08:30:41.841Z,999.82
2018-05-21T08:33:10.633Z,999.84
2018-05-21T08:35:40.234Z,999.79
2018-05-21T08:38:09.821Z,999.78
2018-05-21T08:40:39.409Z,999.76
2018-05-21T08:43:08.982Z,999.78
2018-05-21T08:45:37.755Z,999.73
2018-05-21T08:48:07.332Z,999.67
2018-05-21T08:50:37.022Z,999.67
2018-05-21T08:53:06.620Z,999.70
2018-05-21T08:55:36.175Z,999.67
2018-05-21T08:58:05.780Z,999.65
2018-05-21T09:00:35.347Z,999.63
2018-05-21T09:03:04.888Z,999.57
2018-05-21T09:05:35.786Z,999.53
2018-05-21T09:08:05.358Z,999.54
2018-05-21T09:10:34.956Z,999.51
2018-05-21T09:13:03.797Z,999.50
2018-05-21T09:15:33.365Z,999.39
2018-05-21T09:18:02.918Z,999.41
2018-05-21T09:20:32.490Z,999.38
2018-05-21T09:23:02.118Z,999.34
2018-05-21T09:25:31.706Z,999.30
2018-05-21T09:28:00.493Z,999.29
2018-05-21T09:30:30.821Z,999.22
2018-05-21T09:33:00.385Z,999.28
2018-05-21T09:35:32.856Z,999.28
2018-05-21T09:38:05.427Z,999.26
2018-05-21T09:40:35.777Z,999.21
2018-05-21T09:43:07.694Z,999.21
2018-05-21T09:45:52.797Z,999.18
2018-05-21T09:48:22.953Z,999.18
2018-05-21T09:50:54.065Z,999.17
2018-05-21T09:53:24.424Z,999.12
2018-05-21T09:55:53.969Z,999.05
2018-05-21T09:58:23.549Z,998.96
2018-05-21T10:00:55.205Z,998.89
2018-05-21T10:03:24.798Z,998.83
2018-05-21T10:05:54.347Z,998.84
2018-05-21T10:08:23.923Z,998.89
2018-05-21T10:10:55.111Z,998.88
2018-05-21T10:13:24.697Z,998.89
2018-05-21T10:15:54.369Z,998.92
2018-05-21T10:18:25.433Z,998.85
2018-05-21T10:20:55.869Z,998.86
2018-05-21T10:23:26.209Z,998.87
2018-05-21T10:25:55.783Z,998.82
2018-05-21T10:28:26.129Z,998.79
2018-05-21T10:30:55.739Z,998.71
2018-05-21T10:33:25.305Z,998.72
2018-05-21T10:35:59.109Z,998.70
2018-05-21T10:38:31.757Z,998.70
2018-05-21T10:41:03.676Z,998.65
2018-05-21T10:43:34.816Z,998.69
2018-05-21T10:46:04.368Z,998.70
2018-05-21T10:48:34.845Z,998.67
2018-05-21T10:51:05.928Z,998.60
2018-05-21T10:53:37.828Z,998.59
2018-05-21T10:56:08.173Z,998.53
2018-05-21T10:58:37.753Z,998.56
2018-05-21T11:01:07.361Z,998.51
2018-05-21T11:03:37.063Z,998.51
2018-05-21T11:06:06.651Z,998.53
2018-05-21T11:08:36.222Z,998.49
2018-05-21T11:11:05.781Z,998.35
2018-05-21T11:13:35.415Z,998.36
2018-05-21T11:16:04.945Z,998.32
2018-05-21T11:18:34.554Z,998.26
2018-05-21T11:21:04.297Z,998.30
2018-05-21T11:23:33.874Z,998.26
2018-05-21T11:26:03.465Z,998.27
2018-05-21T11:28:33.049Z,998.21
2018-05-21T11:31:02.645Z,998.17
2018-05-21T11:33:32.210Z,998.13
2018-05-21T11:36:01.815Z,998.03
2018-05-21T11:38:31.951Z,998.06
2018-05-21T11:41:01.537Z,998.04
2018-05-21T11:43:31.095Z,998.01
2018-05-21T11:46:00.681Z,998.00
2018-05-21T11:48:30.247Z,997.95
2018-05-21T11:50:59.833Z,997.90
2018-05-21T11:53:29.411Z,997.89
2018-05-21T11:55:58.970Z,997.91
2018-05-21T11:58:28.537Z,997.83
2018-05-21T12:00:58.094Z,997.81
2018-05-21T12:03:27.649Z,997.79
2018-05-21T12:05:57.233Z,997.72
2018-05-21T12:08:26.794Z,997.75
2018-05-21T12:10:56.398Z,997.69
2018-05-21T12:13:25.988Z,997.68
2018-05-21T12:15:55.569Z,997.63
2018-05-21T12:18:25.129Z,997.65
2018-05-21T12:20:54.713Z,997.64
2018-05-21T12:23:24.270Z,997.64
2018-05-21T12:25:53.845Z,997.67
2018-05-21T12:28:23.415Z,997.60
2018-05-21T12:30:52.985Z,997.59
2018-05-21T12:33:23.341Z,997.59
2018-05-21T12:35:52.908Z,997.55
2018-05-21T12:38:22.520Z,997.50
2018-05-21T12:40:52.131Z,997.47
2018-05-21T12:43:20.929Z,997.47
2018-05-21T12:45:50.476Z,997.48
2018-05-21T12:48:20.070Z,997.47
2018-05-21T12:50:49.641Z,997.47
2018-05-21T12:53:19.194Z,997.54
2018-05-21T12:55:47.978Z,997.53
2018-05-21T12:58:19.114Z,997.50
2018-05-21T13:00:49.830Z,997.50
2018-05-21T13:03:19.424Z,997.46
2018-05-21T13:05:49.034Z,997.45
2018-05-21T13:08:20.178Z,997.46
2018-05-21T13:10:50.555Z,997.42
2018-05-21T13:13:20.925Z,997.39
2018-05-21T13:15:51.332Z,997.43
2018-05-21T13:18:20.910Z,997.39
2018-05-21T13:20:51.501Z,997.42
2018-05-21T13:23:21.120Z,997.32
2018-05-21T13:25:50.710Z,997.37
2018-05-21T13:28:20.253Z,997.25
2018-05-21T13:30:50.627Z,997.25
2018-05-21T13:33:20.953Z,997.25
2018-05-21T13:35:51.313Z,997.25
2018-05-21T13:38:21.076Z,997.18
2018-05-21T13:40:51.455Z,997.18
2018-05-21T13:43:21.801Z,997.12
2018-05-21T13:45:51.390Z,997.08
2018-05-21T13:48:21.738Z,997.10
2018-05-21T13:50:52.852Z,997.02
2018-05-21T13:53:22.464Z,997.04
2018-05-21T13:55:54.950Z,997.02
2018-05-21T13:58:27.449Z,997.03
2018-05-21T14:00:57.841Z,997.01
2018-05-21T14:03:28.175Z,997.03
2018-05-21T14:05:58.518Z,996.98
2018-05-21T14:08:28.146Z,996.92
2018-05-21T14:10:57.730Z,996.92
2018-05-21T14:13:28.169Z,996.93
2018-05-21T14:15:57.774Z,996.92
2018-05-21T14:18:28.125Z,996.90
2018-05-21T14:20:57.701Z,996.80
2018-05-21T14:23:28.806Z,996.80
2018-05-21T14:25:58.398Z,996.76
2018-05-21T14:28:28.709Z,996.71
2018-05-21T14:30:59.194Z,996.72
2018-05-21T14:33:28.730Z,996.68
2018-05-21T14:35:58.340Z,996.65
2018-05-21T14:38:27.972Z,996.63
2018-05-21T14:40:58.492Z,996.55
2018-05-21T14:43:28.895Z,996.50
2018-05-21T14:45:59.281Z,996.49
2018-05-21T14:48:31.218Z,996.44
2018-05-21T14:51:00.757Z,996.37
2018-05-21T14:53:33.317Z,996.41
2018-05-21T14:56:03.690Z,996.31
2018-05-21T14:58:35.564Z,996.30
2018-05-21T15:01:08.084Z,996.27
2018-05-21T15:03:37.657Z,996.25
2018-05-21T15:06:08.753Z,996.24
2018-05-21T15:08:39.097Z,996.22
2018-05-21T15:11:08.706Z,996.27
2018-05-21T15:13:39.098Z,996.23
2018-05-21T15:16:09.574Z,996.18
2018-05-21T15:18:39.144Z,996.20
2018-05-21T15:21:08.693Z,996.15
2018-05-21T15:23:39.094Z,996.12
2018-05-21T15:26:08.670Z,996.16
2018-05-21T15:28:39.751Z,996.05
2018-05-21T15:31:12.296Z,996.07
2018-05-21T15:33:42.046Z,996.11
2018-05-21T15:36:14.722Z,996.10
2018-05-21T15:38:44.185Z,996.05
2018-05-21T15:41:14.561Z,996.08
2018-05-21T15:43:44.919Z,996.08
2018-05-21T15:46:14.460Z,996.05
2018-05-21T15:48:44.114Z,996.03
2018-05-21T15:51:14.361Z,996.10
2018-05-21T15:53:43.977Z,996.02
2018-05-21T15:56:13.539Z,996.05
2018-05-21T15:58:44.408Z,995.99
2018-05-21T16:01:13.951Z,995.98
2018-05-21T16:03:43.534Z,995.94
2018-05-21T16:06:13.144Z,995.96
2018-05-21T16:08:42.796Z,995.92
2018-05-21T16:11:12.313Z,995.93
2018-05-21T16:13:42.669Z,995.93
2018-05-21T16:16:15.193Z,995.91
2018-05-21T16:18:57.311Z,995.89
2018-05-21T16:21:26.937Z,995.90
2018-05-21T16:23:56.665Z,995.85
2018-05-21T16:26:26.264Z,995.80
2018-05-21T16:28:56.588Z,995.84
2018-05-21T16:31:26.983Z,995.77
2018-05-21T16:33:56.541Z,995.77
2018-05-21T16:36:26.481Z,995.79
2018-05-21T16:38:56.078Z,995.83
2018-05-21T16:41:26.346Z,995.81
2018-05-21T16:43:55.877Z,995.78
2018-05-21T16:46:25.566Z,995.79
2018-05-21T16:48:55.095Z,995.77
2018-05-21T16:51:24.657Z,995.80
2018-05-21T16:53:54.232Z,995.76
2018-05-21T16:56:23.805Z,995.81
2018-05-21T16:58:53.405Z,995.78
2018-05-21T17:01:24.533Z,995.77
2018-05-21T17:03:54.107Z,995.72
2018-05-21T17:06:23.693Z,995.73
2018-05-21T17:08:54.885Z,995.71
2018-05-21T17:11:26.097Z,995.67
2018-05-21T17:13:56.445Z,995.72
2018-05-21T17:16:28.950Z,995.64
2018-05-21T17:19:00.049Z,995.68
2018-05-21T17:21:30.400Z,995.69
2018-05-21T17:24:00.076Z,995.66
2018-05-21T17:26:30.411Z,995.66
2018-05-21T17:28:59.991Z,995.64
2018-05-21T17:31:29.577Z,995.63
2018-05-21T17:33:59.122Z,995.64
2018-05-21T17:36:28.722Z,995.57
2018-05-21T17:38:58.316Z,995.55
2018-05-21T17:41:27.882Z,995.56
2018-05-21T17:43:57.479Z,995.54
2018-05-21T17:46:27.041Z,995.52
2018-05-21T17:48:56.649Z,995.55
2018-05-21T17:51:26.235Z,995.55
2018-05-21T17:53:57.294Z,995.49
2018-05-21T17:56:39.424Z,995.56
2018-05-21T17:59:09.027Z,995.50
2018-05-21T18:01:41.249Z,995.60
2018-05-21T18:04:22.663Z,995.56
2018-05-21T18:06:55.176Z,995.56
2018-05-21T18:09:25.580Z,995.58
2018-05-21T18:11:56.725Z,995.58
2018-05-21T18:14:26.390Z,995.55
2018-05-21T18:16:56.807Z,995.57
2018-05-21T18:19:27.049Z,995.61
2018-05-21T18:21:56.637Z,995.63
2018-05-21T18:24:26.203Z,995.65
2018-05-21T18:26:56.357Z,995.67
2018-05-21T18:29:25.918Z,995.64
2018-05-21T18:31:56.282Z,995.61
2018-05-21T18:34:27.379Z,995.63
2018-05-21T18:36:56.974Z,995.62
2018-05-21T18:39:26.608Z,995.56
2018-05-21T18:41:56.957Z,995.58
2018-05-21T18:44:26.550Z,995.64
2018-05-21T18:46:56.888Z,995.66
2018-05-21T18:49:26.482Z,995.67
2018-05-21T18:51:57.584Z,995.67
2018-05-21T18:54:30.113Z,995.66
2018-05-21T18:57:00.474Z,995.66
2018-05-21T18:59:32.524Z,995.63
2018-05-21T19:02:02.127Z,995.63
2018-05-21T19:04:32.500Z,995.62
2018-05-21T19:07:02.099Z,995.57
2018-05-21T19:09:31.729Z,995.58
2018-05-21T19:12:01.308Z,995.59
2018-05-21T19:14:32.569Z,995.64
2018-05-21T19:17:02.123Z,995.67
2018-05-21T19:19:31.677Z,995.69
2018-05-21T19:22:02.972Z,995.72
2018-05-21T19:24:32.540Z,995.73
2018-05-21T19:27:02.151Z,995.69
2018-05-21T19:29:31.720Z,995.78
2018-05-21T19:32:01.292Z,995.81
2018-05-21T19:34:30.851Z,995.83
2018-05-21T19:37:12.986Z,995.87
2018-05-21T19:39:42.648Z,995.86
2018-05-21T19:42:14.617Z,995.84
2018-05-21T19:44:44.202Z,995.83
2018-05-21T19:47:15.335Z,995.84
2018-05-21T19:49:44.919Z,995.84
2018-05-21T19:52:17.411Z,995.84
2018-05-21T19:54:46.984Z,995.88
2018-05-21T19:57:18.098Z,995.90
2018-05-21T19:59:48.464Z,995.96
2018-05-21T20:02:18.824Z,995.96
2018-05-21T20:04:48.456Z,995.93
2018-05-21T20:07:30.617Z,995.91
2018-05-21T20:10:02.578Z,995.88
2018-05-21T20:12:32.240Z,995.89
2018-05-21T20:15:01.849Z,995.87
2018-05-21T20:17:31.425Z,995.96
2018-05-21T20:20:01.745Z,995.96
2018-05-21T20:22:31.336Z,995.97
2018-05-21T20:25:00.893Z,995.93
2018-05-21T20:27:30.474Z,995.92
2018-05-21T20:30:01.072Z,995.98
2018-05-21T20:32:30.652Z,995.95
2018-05-21T20:35:00.243Z,995.93
2018-05-21T20:37:29.846Z,995.96
2018-05-21T20:39:59.458Z,995.93
2018-05-21T20:42:29.051Z,995.94
2018-05-21T20:44:58.639Z,995.95
2018-05-21T20:47:28.225Z,995.93
2018-05-21T20:49:57.036Z,995.93
2018-05-21T20:52:26.628Z,995.94
2018-05-21T20:54:56.209Z,995.94
2018-05-21T20:57:25.798Z,995.91
2018-05-21T20:59:56.131Z,995.95
2018-05-21T21:02:25.685Z,995.90
2018-05-21T21:04:56.790Z,995.90
2018-05-21T21:07:27.157Z,995.89
2018-05-21T21:09:59.079Z,995.92
2018-05-21T21:12:29.465Z,995.84
2018-05-21T21:14:59.033Z,995.81
2018-05-21T21:17:28.594Z,995.84
2018-05-21T21:19:58.959Z,995.81
2018-05-21T21:22:28.529Z,995.80
2018-05-21T21:24:58.117Z,995.80
2018-05-21T21:27:27.692Z,995.79
2018-05-21T21:29:57.300Z,995.79
2018-05-21T21:32:27.637Z,995.77
2018-05-21T21:34:57.987Z,995.82
2018-05-21T21:37:28.293Z,995.79
2018-05-21T21:39:58.687Z,995.84
2018-05-21T21:42:41.555Z,995.78
2018-05-21T21:45:11.916Z,995.77
2018-05-21T21:47:41.500Z,995.79
2018-05-21T21:50:11.078Z,995.75
2018-05-21T21:52:41.429Z,995.74
2018-05-21T21:55:13.343Z,995.66
2018-05-21T21:57:43.038Z,995.63
2018-05-21T22:00:15.553Z,995.64
2018-05-21T22:02:45.131Z,995.62
2018-05-21T22:05:15.663Z,995.60
2018-05-21T22:07:45.292Z,995.62
2018-05-21T22:10:15.726Z,995.58
2018-05-21T22:12:45.292Z,995.62
2018-05-21T22:15:14.892Z,995.61
2018-05-21T22:17:44.831Z,995.63
2018-05-21T22:20:28.073Z,995.67
2018-05-21T22:22:59.177Z,995.71
2018-05-21T22:25:28.785Z,995.73
2018-05-21T22:27:58.371Z,995.77
2018-05-21T22:30:27.976Z,995.78
2018-05-21T22:32:58.354Z,995.74
2018-05-21T22:35:27.982Z,995.73
2018-05-21T22:37:58.374Z,995.81
2018-05-21T22:40:27.989Z,995.76
2018-05-21T22:42:58.377Z,995.77
2018-05-21T22:45:31.129Z,995.77
2018-05-21T22:48:02.340Z,995.77
2018-05-21T22:50:31.857Z,995.75
2018-05-21T22:53:01.469Z,995.78
2018-05-21T22:55:31.818Z,995.75
2018-05-21T22:58:01.398Z,995.74
2018-05-21T23:00:30.971Z,995.71
2018-05-21T23:03:02.086Z,995.73
2018-05-21T23:05:31.681Z,995.74
2018-05-21T23:08:02.010Z,995.76
2018-05-21T23:10:32.350Z,995.72
2018-05-21T23:13:02.679Z,995.76
2018-05-21T23:15:33.825Z,995.78
2018-05-21T23:18:04.231Z,995.80
2018-05-21T23:20:34.585Z,995.73
2018-05-21T23:23:04.150Z,995.72
2018-05-21T23:25:33.742Z,995.75
2018-05-21T23:28:03.340Z,995.77
2018-05-21T23:30:33.002Z,995.77
2018-05-21T23:33:02.577Z,995.80
2018-05-21T23:35:32.140Z,995.83
2018-05-21T23:38:02.493Z,995.77
2018-05-21T23:40:33.592Z,995.78
2018-05-21T23:43:03.945Z,995.83
2018-05-21T23:45:46.097Z,995.76
2018-05-21T23:48:15.674Z,995.75
2018-05-21T23:50:45.209Z,995.80
2018-05-21T23:53:17.733Z,995.88
2018-05-21T23:55:47.278Z,995.84
2018-05-21T23:58:18.418Z,995.89
